sensor_id;sensor_type;location;lat;lon;timestamp;P1;durP1;ratioP1;P2;durP2;ratioP2
2972;SDS011;1496;51.404;7.232;2024-03-17T00:01:52;8.53;;;2.77;;
2972;SDS011;1496;51.404;7.232;2024-03-17T00:04:18;6.90;;;2.10;;
2972;SDS011;1496;51.404;7.232;2024-03-17T00:06:44;4.07;;;2.80;;
2972;SDS011;1496;51.404;7.232;2024-03-17T00:09:10;3.80;;;2.10;;
2972;SDS011;1496;51.404;7.232;2024-03-17T00:11:36;7.83;;;3.20;;
2972;SDS011;1496;51.404;7.232;2024-03-17T00:14:02;6.50;;;3.10;;
2972;SDS011;1496;51.404;7.232;2024-03-17T00:16:28;4.43;;;2.40;;
2972;SDS011;1496;51.404;7.232;2024-03-17T00:18:53;6.27;;;2.97;;
2972;SDS011;1496;51.404;7.232;2024-03-17T00:21:20;6.73;;;2.60;;
2972;SDS011;1496;51.404;7.232;2024-03-17T00:23:52;4.70;;;2.50;;
2972;SDS011;1496;51.404;7.232;2024-03-17T00:26:18;6.30;;;2.80;;
2972;SDS011;1496;51.404;7.232;2024-03-17T00:28:47;4.50;;;3.00;;
2972;SDS011;1496;51.404;7.232;2024-03-17T00:31:16;4.30;;;2.60;;
2972;SDS011;1496;51.404;7.232;2024-03-17T00:33:43;7.07;;;2.57;;
2972;SDS011;1496;51.404;7.232;2024-03-17T00:36:09;5.77;;;2.70;;
2972;SDS011;1496;51.404;7.232;2024-03-17T00:38:35;3.87;;;2.37;;
2972;SDS011;1496;51.404;7.232;2024-03-17T00:41:02;5.97;;;2.60;;
2972;SDS011;1496;51.404;7.232;2024-03-17T00:43:28;5.77;;;2.23;;
2972;SDS011;1496;51.404;7.232;2024-03-17T00:45:54;10.10;;;2.60;;
2972;SDS011;1496;51.404;7.232;2024-03-17T00:48:19;4.10;;;2.80;;
2972;SDS011;1496;51.404;7.232;2024-03-17T00:50:45;2.93;;;2.50;;
2972;SDS011;1496;51.404;7.232;2024-03-17T00:53:11;4.43;;;2.73;;
2972;SDS011;1496;51.404;7.232;2024-03-17T00:55:40;5.43;;;2.13;;
2972;SDS011;1496;51.404;7.232;2024-03-17T00:58:41;3.23;;;2.50;;
2972;SDS011;1496;51.404;7.232;2024-03-17T01:01:07;4.83;;;2.60;;
2972;SDS011;1496;51.404;7.232;2024-03-17T01:03:33;7.67;;;2.87;;
2972;SDS011;1496;51.404;7.232;2024-03-17T01:05:59;4.00;;;2.90;;
2972;SDS011;1496;51.404;7.232;2024-03-17T01:08:31;5.03;;;3.13;;
2972;SDS011;1496;51.404;7.232;2024-03-17T01:11:13;5.47;;;2.93;;
2972;SDS011;1496;51.404;7.232;2024-03-17T01:13:44;5.93;;;2.83;;
2972;SDS011;1496;51.404;7.232;2024-03-17T01:16:14;3.23;;;2.50;;
2972;SDS011;1496;51.404;7.232;2024-03-17T01:18:40;8.53;;;2.50;;
2972;SDS011;1496;51.404;7.232;2024-03-17T01:21:08;3.40;;;2.20;;
2972;SDS011;1496;51.404;7.232;2024-03-17T01:23:34;9.03;;;3.10;;
2972;SDS011;1496;51.404;7.232;2024-03-17T01:28:44;4.27;;;2.30;;
2972;SDS011;1496;51.404;7.232;2024-03-17T01:31:09;3.27;;;2.60;;
2972;SDS011;1496;51.404;7.232;2024-03-17T01:33:35;2.70;;;2.27;;
2972;SDS011;1496;51.404;7.232;2024-03-17T01:36:01;4.33;;;3.10;;
2972;SDS011;1496;51.404;7.232;2024-03-17T01:38:26;3.27;;;2.60;;
2972;SDS011;1496;51.404;7.232;2024-03-17T01:40:55;4.00;;;2.30;;
2972;SDS011;1496;51.404;7.232;2024-03-17T01:43:27;4.23;;;2.40;;
2972;SDS011;1496;51.404;7.232;2024-03-17T01:45:53;11.43;;;3.43;;
2972;SDS011;1496;51.404;7.232;2024-03-17T01:48:19;6.87;;;3.17;;
2972;SDS011;1496;51.404;7.232;2024-03-17T01:50:44;7.43;;;3.17;;
2972;SDS011;1496;51.404;7.232;2024-03-17T01:53:13;5.60;;;2.97;;
2972;SDS011;1496;51.404;7.232;2024-03-17T01:55:43;4.57;;;2.70;;
2972;SDS011;1496;51.404;7.232;2024-03-17T01:58:11;5.23;;;3.10;;
2972;SDS011;1496;51.404;7.232;2024-03-17T02:00:37;6.30;;;3.20;;
2972;SDS011;1496;51.404;7.232;2024-03-17T02:03:06;6.93;;;3.20;;
2972;SDS011;1496;51.404;7.232;2024-03-17T02:05:33;4.70;;;2.97;;
2972;SDS011;1496;51.404;7.232;2024-03-17T02:08:00;7.80;;;3.33;;
2972;SDS011;1496;51.404;7.232;2024-03-17T02:10:26;3.80;;;2.63;;
2972;SDS011;1496;51.404;7.232;2024-03-17T02:12:52;5.13;;;2.50;;
2972;SDS011;1496;51.404;7.232;2024-03-17T02:15:19;10.13;;;3.07;;
2972;SDS011;1496;51.404;7.232;2024-03-17T02:17:44;8.17;;;3.33;;
2972;SDS011;1496;51.404;7.232;2024-03-17T02:20:10;7.60;;;3.67;;
2972;SDS011;1496;51.404;7.232;2024-03-17T02:22:36;7.20;;;3.50;;
2972;SDS011;1496;51.404;7.232;2024-03-17T02:25:05;12.20;;;3.47;;
2972;SDS011;1496;51.404;7.232;2024-03-17T02:27:37;8.47;;;3.93;;
2972;SDS011;1496;51.404;7.232;2024-03-17T02:30:03;8.47;;;3.00;;
2972;SDS011;1496;51.404;7.232;2024-03-17T02:32:35;9.37;;;3.10;;
2972;SDS011;1496;51.404;7.232;2024-03-17T02:35:01;7.77;;;3.30;;
2972;SDS011;1496;51.404;7.232;2024-03-17T02:37:30;5.03;;;3.13;;
2972;SDS011;1496;51.404;7.232;2024-03-17T02:39:56;9.80;;;3.47;;
2972;SDS011;1496;51.404;7.232;2024-03-17T02:42:21;8.63;;;3.33;;
2972;SDS011;1496;51.404;7.232;2024-03-17T02:44:51;7.30;;;3.10;;
2972;SDS011;1496;51.404;7.232;2024-03-17T02:47:17;5.17;;;3.23;;
2972;SDS011;1496;51.404;7.232;2024-03-17T02:49:42;9.10;;;3.20;;
2972;SDS011;1496;51.404;7.232;2024-03-17T02:52:09;5.03;;;2.70;;
2972;SDS011;1496;51.404;7.232;2024-03-17T02:54:35;6.03;;;3.00;;
2972;SDS011;1496;51.404;7.232;2024-03-17T02:57:07;7.40;;;3.17;;
2972;SDS011;1496;51.404;7.232;2024-03-17T02:59:36;6.33;;;3.37;;
2972;SDS011;1496;51.404;7.232;2024-03-17T03:02:01;4.77;;;3.87;;
2972;SDS011;1496;51.404;7.232;2024-03-17T03:04:27;7.80;;;3.30;;
2972;SDS011;1496;51.404;7.232;2024-03-17T03:06:53;6.80;;;3.30;;
2972;SDS011;1496;51.404;7.232;2024-03-17T03:09:19;6.47;;;2.97;;
2972;SDS011;1496;51.404;7.232;2024-03-17T03:14:32;4.47;;;3.30;;
2972;SDS011;1496;51.404;7.232;2024-03-17T03:16:58;5.93;;;3.27;;
2972;SDS011;1496;51.404;7.232;2024-03-17T03:19:25;4.80;;;3.33;;
2972;SDS011;1496;51.404;7.232;2024-03-17T03:21:51;11.53;;;3.43;;
2972;SDS011;1496;51.404;7.232;2024-03-17T03:24:17;4.60;;;3.40;;
2972;SDS011;1496;51.404;7.232;2024-03-17T03:26:43;5.30;;;3.30;;
2972;SDS011;1496;51.404;7.232;2024-03-17T03:29:12;4.40;;;3.13;;
2972;SDS011;1496;51.404;7.232;2024-03-17T03:31:39;9.07;;;3.60;;
2972;SDS011;1496;51.404;7.232;2024-03-17T03:34:06;6.20;;;3.70;;
2972;SDS011;1496;51.404;7.232;2024-03-17T03:36:37;7.57;;;3.90;;
2972;SDS011;1496;51.404;7.232;2024-03-17T03:39:03;4.17;;;3.50;;
2972;SDS011;1496;51.404;7.232;2024-03-17T03:41:36;6.50;;;4.50;;
2972;SDS011;1496;51.404;7.232;2024-03-17T03:44:03;6.63;;;4.03;;
2972;SDS011;1496;51.404;7.232;2024-03-17T03:46:28;7.63;;;4.00;;
2972;SDS011;1496;51.404;7.232;2024-03-17T03:48:54;7.00;;;4.20;;
2972;SDS011;1496;51.404;7.232;2024-03-17T03:51:20;11.63;;;4.47;;
2972;SDS011;1496;51.404;7.232;2024-03-17T03:53:45;10.70;;;4.73;;
2972;SDS011;1496;51.404;7.232;2024-03-17T03:56:14;12.53;;;5.40;;
2972;SDS011;1496;51.404;7.232;2024-03-17T03:58:40;9.53;;;5.50;;
2972;SDS011;1496;51.404;7.232;2024-03-17T04:01:07;10.43;;;5.17;;
2972;SDS011;1496;51.404;7.232;2024-03-17T04:03:36;11.63;;;5.77;;
2972;SDS011;1496;51.404;7.232;2024-03-17T04:06:09;7.30;;;5.30;;
2972;SDS011;1496;51.404;7.232;2024-03-17T04:08:36;9.70;;;6.27;;
2972;SDS011;1496;51.404;7.232;2024-03-17T04:11:02;6.80;;;4.80;;
2972;SDS011;1496;51.404;7.232;2024-03-17T04:13:29;10.70;;;6.20;;
2972;SDS011;1496;51.404;7.232;2024-03-17T04:15:55;14.53;;;6.70;;
2972;SDS011;1496;51.404;7.232;2024-03-17T04:18:23;10.53;;;6.50;;
2972;SDS011;1496;51.404;7.232;2024-03-17T04:20:52;10.43;;;6.97;;
2972;SDS011;1496;51.404;7.232;2024-03-17T04:23:21;14.73;;;7.33;;
2972;SDS011;1496;51.404;7.232;2024-03-17T04:25:48;16.00;;;7.43;;
2972;SDS011;1496;51.404;7.232;2024-03-17T04:28:57;16.77;;;7.73;;
2972;SDS011;1496;51.404;7.232;2024-03-17T04:31:23;10.63;;;6.80;;
2972;SDS011;1496;51.404;7.232;2024-03-17T04:33:48;12.13;;;7.10;;
2972;SDS011;1496;51.404;7.232;2024-03-17T04:36:17;13.60;;;7.53;;
2972;SDS011;1496;51.404;7.232;2024-03-17T04:38:42;10.97;;;7.07;;
2972;SDS011;1496;51.404;7.232;2024-03-17T04:41:08;13.13;;;6.93;;
2972;SDS011;1496;51.404;7.232;2024-03-17T04:48:24;15.00;;;8.60;;
2972;SDS011;1496;51.404;7.232;2024-03-17T04:50:56;14.20;;;6.97;;
2972;SDS011;1496;51.404;7.232;2024-03-17T04:53:21;9.67;;;5.80;;
2972;SDS011;1496;51.404;7.232;2024-03-17T04:55:47;11.80;;;5.40;;
2972;SDS011;1496;51.404;7.232;2024-03-17T04:58:13;10.53;;;5.50;;
2972;SDS011;1496;51.404;7.232;2024-03-17T05:00:38;14.57;;;5.30;;
2972;SDS011;1496;51.404;7.232;2024-03-17T05:03:04;11.27;;;6.63;;
2972;SDS011;1496;51.404;7.232;2024-03-17T05:05:30;16.07;;;6.20;;
2972;SDS011;1496;51.404;7.232;2024-03-17T05:07:55;9.10;;;5.90;;
2972;SDS011;1496;51.404;7.232;2024-03-17T05:10:21;9.23;;;5.83;;
2972;SDS011;1496;51.404;7.232;2024-03-17T05:12:47;9.87;;;5.60;;
2972;SDS011;1496;51.404;7.232;2024-03-17T05:15:13;12.60;;;7.77;;
2972;SDS011;1496;51.404;7.232;2024-03-17T05:17:38;14.47;;;6.63;;
2972;SDS011;1496;51.404;7.232;2024-03-17T05:20:04;14.27;;;8.47;;
2972;SDS011;1496;51.404;7.232;2024-03-17T05:22:31;14.43;;;7.13;;
2972;SDS011;1496;51.404;7.232;2024-03-17T05:24:57;15.33;;;7.53;;
2972;SDS011;1496;51.404;7.232;2024-03-17T05:27:23;8.73;;;6.80;;
2972;SDS011;1496;51.404;7.232;2024-03-17T05:29:48;17.90;;;8.33;;
2972;SDS011;1496;51.404;7.232;2024-03-17T05:32:16;10.77;;;6.83;;
2972;SDS011;1496;51.404;7.232;2024-03-17T05:34:42;11.53;;;6.87;;
2972;SDS011;1496;51.404;7.232;2024-03-17T05:37:08;14.07;;;7.57;;
2972;SDS011;1496;51.404;7.232;2024-03-17T05:39:33;17.90;;;7.90;;
2972;SDS011;1496;51.404;7.232;2024-03-17T05:41:59;14.50;;;7.50;;
2972;SDS011;1496;51.404;7.232;2024-03-17T05:44:25;17.10;;;9.17;;
2972;SDS011;1496;51.404;7.232;2024-03-17T05:46:50;10.33;;;7.37;;
2972;SDS011;1496;51.404;7.232;2024-03-17T05:49:18;10.17;;;7.03;;
2972;SDS011;1496;51.404;7.232;2024-03-17T05:51:46;15.50;;;7.20;;
2972;SDS011;1496;51.404;7.232;2024-03-17T05:54:11;11.07;;;6.97;;
2972;SDS011;1496;51.404;7.232;2024-03-17T05:56:40;17.53;;;7.83;;
2972;SDS011;1496;51.404;7.232;2024-03-17T05:59:06;14.23;;;6.73;;
2972;SDS011;1496;51.404;7.232;2024-03-17T06:01:37;11.13;;;7.27;;
2972;SDS011;1496;51.404;7.232;2024-03-17T06:04:03;13.17;;;7.70;;
2972;SDS011;1496;51.404;7.232;2024-03-17T06:06:29;14.57;;;6.87;;
2972;SDS011;1496;51.404;7.232;2024-03-17T06:08:56;19.67;;;8.30;;
2972;SDS011;1496;51.404;7.232;2024-03-17T06:11:21;11.50;;;6.70;;
2972;SDS011;1496;51.404;7.232;2024-03-17T06:13:53;12.60;;;7.23;;
2972;SDS011;1496;51.404;7.232;2024-03-17T06:16:28;9.37;;;6.00;;
2972;SDS011;1496;51.404;7.232;2024-03-17T06:19:19;11.77;;;6.43;;
2972;SDS011;1496;51.404;7.232;2024-03-17T06:21:47;12.37;;;6.77;;
2972;SDS011;1496;51.404;7.232;2024-03-17T06:24:13;17.77;;;7.57;;
2972;SDS011;1496;51.404;7.232;2024-03-17T06:26:42;13.23;;;6.67;;
2972;SDS011;1496;51.404;7.232;2024-03-17T06:29:08;14.30;;;6.70;;
2972;SDS011;1496;51.404;7.232;2024-03-17T06:31:55;15.03;;;7.10;;
2972;SDS011;1496;51.404;7.232;2024-03-17T06:34:32;12.50;;;6.47;;
2972;SDS011;1496;51.404;7.232;2024-03-17T06:36:57;9.70;;;6.47;;
2972;SDS011;1496;51.404;7.232;2024-03-17T06:39:24;9.03;;;6.00;;
2972;SDS011;1496;51.404;7.232;2024-03-17T06:41:49;12.30;;;6.13;;
2972;SDS011;1496;51.404;7.232;2024-03-17T06:44:15;7.17;;;5.40;;
2972;SDS011;1496;51.404;7.232;2024-03-17T06:46:41;11.57;;;6.43;;
2972;SDS011;1496;51.404;7.232;2024-03-17T06:49:07;7.77;;;4.83;;
2972;SDS011;1496;51.404;7.232;2024-03-17T06:51:32;9.47;;;5.40;;
2972;SDS011;1496;51.404;7.232;2024-03-17T06:53:58;9.20;;;5.60;;
2972;SDS011;1496;51.404;7.232;2024-03-17T06:56:24;9.03;;;4.70;;
2972;SDS011;1496;51.404;7.232;2024-03-17T06:58:50;7.13;;;5.40;;
2972;SDS011;1496;51.404;7.232;2024-03-17T07:01:17;8.30;;;5.50;;
2972;SDS011;1496;51.404;7.232;2024-03-17T07:03:47;9.60;;;4.70;;
2972;SDS011;1496;51.404;7.232;2024-03-17T07:06:13;8.40;;;5.20;;
2972;SDS011;1496;51.404;7.232;2024-03-17T07:08:39;10.50;;;5.40;;
2972;SDS011;1496;51.404;7.232;2024-03-17T07:11:05;11.17;;;4.97;;
2972;SDS011;1496;51.404;7.232;2024-03-17T07:15:59;12.90;;;4.40;;
2972;SDS011;1496;51.404;7.232;2024-03-17T07:18:26;8.67;;;5.00;;
2972;SDS011;1496;51.404;7.232;2024-03-17T07:21:02;4.53;;;3.60;;
2972;SDS011;1496;51.404;7.232;2024-03-17T07:23:32;4.90;;;3.60;;
2972;SDS011;1496;51.404;7.232;2024-03-17T07:25:59;8.20;;;4.50;;
2972;SDS011;1496;51.404;7.232;2024-03-17T07:28:26;6.80;;;4.10;;
2972;SDS011;1496;51.404;7.232;2024-03-17T07:30:52;6.30;;;4.17;;
2972;SDS011;1496;51.404;7.232;2024-03-17T07:33:21;9.43;;;3.90;;
2972;SDS011;1496;51.404;7.232;2024-03-17T07:35:48;3.80;;;3.17;;
2972;SDS011;1496;51.404;7.232;2024-03-17T07:38:14;4.20;;;3.30;;
2972;SDS011;1496;51.404;7.232;2024-03-17T07:40:40;4.20;;;3.47;;
2972;SDS011;1496;51.404;7.232;2024-03-17T07:43:06;5.60;;;3.90;;
2972;SDS011;1496;51.404;7.232;2024-03-17T07:45:32;4.47;;;3.23;;
2972;SDS011;1496;51.404;7.232;2024-03-17T07:48:06;8.13;;;3.60;;
2972;SDS011;1496;51.404;7.232;2024-03-17T07:50:34;4.27;;;3.13;;
2972;SDS011;1496;51.404;7.232;2024-03-17T07:53:03;7.40;;;3.90;;
2972;SDS011;1496;51.404;7.232;2024-03-17T07:55:29;4.80;;;3.20;;
2972;SDS011;1496;51.404;7.232;2024-03-17T07:57:56;5.60;;;3.20;;
2972;SDS011;1496;51.404;7.232;2024-03-17T08:00:21;6.17;;;4.00;;
2972;SDS011;1496;51.404;7.232;2024-03-17T08:02:47;4.17;;;3.53;;
2972;SDS011;1496;51.404;7.232;2024-03-17T08:05:13;3.87;;;3.00;;
2972;SDS011;1496;51.404;7.232;2024-03-17T08:07:39;4.10;;;3.20;;
2972;SDS011;1496;51.404;7.232;2024-03-17T08:10:07;5.70;;;3.20;;
2972;SDS011;1496;51.404;7.232;2024-03-17T08:12:33;5.10;;;3.47;;
2972;SDS011;1496;51.404;7.232;2024-03-17T08:14:59;4.10;;;2.87;;
2972;SDS011;1496;51.404;7.232;2024-03-17T08:17:25;5.00;;;3.37;;
2972;SDS011;1496;51.404;7.232;2024-03-17T08:19:50;3.97;;;3.20;;
2972;SDS011;1496;51.404;7.232;2024-03-17T08:22:16;5.40;;;3.10;;
2972;SDS011;1496;51.404;7.232;2024-03-17T08:24:42;5.77;;;3.70;;
2972;SDS011;1496;51.404;7.232;2024-03-17T08:27:08;4.00;;;2.93;;
2972;SDS011;1496;51.404;7.232;2024-03-17T08:33:58;4.80;;;3.80;;
2972;SDS011;1496;51.404;7.232;2024-03-17T08:36:24;3.13;;;2.83;;
2972;SDS011;1496;51.404;7.232;2024-03-17T08:38:51;4.77;;;3.47;;
2972;SDS011;1496;51.404;7.232;2024-03-17T08:41:16;3.93;;;3.23;;
2972;SDS011;1496;51.404;7.232;2024-03-17T08:43:42;4.73;;;3.03;;
2972;SDS011;1496;51.404;7.232;2024-03-17T08:46:08;4.83;;;3.70;;
2972;SDS011;1496;51.404;7.232;2024-03-17T08:48:36;5.20;;;3.80;;
2972;SDS011;1496;51.404;7.232;2024-03-17T08:51:04;4.43;;;3.10;;
2972;SDS011;1496;51.404;7.232;2024-03-17T08:53:34;3.50;;;2.80;;
2972;SDS011;1496;51.404;7.232;2024-03-17T08:56:00;5.40;;;3.10;;
2972;SDS011;1496;51.404;7.232;2024-03-17T08:58:28;7.67;;;3.67;;
2972;SDS011;1496;51.404;7.232;2024-03-17T09:00:54;3.63;;;2.90;;
2972;SDS011;1496;51.404;7.232;2024-03-17T09:03:21;5.10;;;3.33;;
2972;SDS011;1496;51.404;7.232;2024-03-17T09:05:47;3.27;;;2.77;;
2972;SDS011;1496;51.404;7.232;2024-03-17T09:08:31;7.23;;;3.40;;
2972;SDS011;1496;51.404;7.232;2024-03-17T09:10:58;7.77;;;3.23;;
2972;SDS011;1496;51.404;7.232;2024-03-17T09:13:24;6.63;;;2.87;;
2972;SDS011;1496;51.404;7.232;2024-03-17T09:18:22;6.03;;;3.67;;
2972;SDS011;1496;51.404;7.232;2024-03-17T09:20:55;3.90;;;3.03;;
2972;SDS011;1496;51.404;7.232;2024-03-17T09:23:21;5.60;;;3.70;;
2972;SDS011;1496;51.404;7.232;2024-03-17T09:25:56;8.53;;;3.73;;
2972;SDS011;1496;51.404;7.232;2024-03-17T09:28:29;8.43;;;3.50;;
2972;SDS011;1496;51.404;7.232;2024-03-17T09:30:58;5.17;;;3.13;;
2972;SDS011;1496;51.404;7.232;2024-03-17T09:33:25;4.03;;;3.20;;
2972;SDS011;1496;51.404;7.232;2024-03-17T09:42:30;4.37;;;2.90;;
2972;SDS011;1496;51.404;7.232;2024-03-17T09:44:57;4.93;;;3.60;;
2972;SDS011;1496;51.404;7.232;2024-03-17T09:47:23;6.27;;;3.30;;
2972;SDS011;1496;51.404;7.232;2024-03-17T09:49:51;11.43;;;3.40;;
2972;SDS011;1496;51.404;7.232;2024-03-17T09:52:21;3.10;;;2.80;;
2972;SDS011;1496;51.404;7.232;2024-03-17T09:54:58;6.27;;;2.80;;
2972;SDS011;1496;51.404;7.232;2024-03-17T09:57:26;4.47;;;3.50;;
2972;SDS011;1496;51.404;7.232;2024-03-17T09:59:55;3.80;;;3.10;;
2972;SDS011;1496;51.404;7.232;2024-03-17T10:02:21;4.77;;;2.80;;
2972;SDS011;1496;51.404;7.232;2024-03-17T10:04:47;5.43;;;2.80;;
2972;SDS011;1496;51.404;7.232;2024-03-17T10:07:14;5.13;;;3.00;;
2972;SDS011;1496;51.404;7.232;2024-03-17T10:09:43;4.67;;;2.97;;
2972;SDS011;1496;51.404;7.232;2024-03-17T10:12:25;8.30;;;3.13;;
2972;SDS011;1496;51.404;7.232;2024-03-17T10:14:57;4.63;;;3.27;;
2972;SDS011;1496;51.404;7.232;2024-03-17T10:17:33;6.80;;;3.20;;
2972;SDS011;1496;51.404;7.232;2024-03-17T10:20:18;3.77;;;3.20;;
2972;SDS011;1496;51.404;7.232;2024-03-17T10:22:58;4.90;;;3.40;;
2972;SDS011;1496;51.404;7.232;2024-03-17T10:25:25;5.20;;;2.90;;
2972;SDS011;1496;51.404;7.232;2024-03-17T10:27:55;5.13;;;3.30;;
2972;SDS011;1496;51.404;7.232;2024-03-17T10:30:25;5.13;;;3.43;;
2972;SDS011;1496;51.404;7.232;2024-03-17T10:32:58;4.60;;;3.10;;
2972;SDS011;1496;51.404;7.232;2024-03-17T10:37:57;7.27;;;4.03;;
2972;SDS011;1496;51.404;7.232;2024-03-17T10:40:25;5.33;;;3.50;;
2972;SDS011;1496;51.404;7.232;2024-03-17T10:42:51;7.47;;;3.57;;
2972;SDS011;1496;51.404;7.232;2024-03-17T10:45:17;5.47;;;3.53;;
2972;SDS011;1496;51.404;7.232;2024-03-17T10:47:43;4.90;;;3.63;;
2972;SDS011;1496;51.404;7.232;2024-03-17T10:50:20;6.23;;;2.83;;
2972;SDS011;1496;51.404;7.232;2024-03-17T10:52:50;7.00;;;3.20;;
2972;SDS011;1496;51.404;7.232;2024-03-17T10:55:20;6.73;;;3.90;;
2972;SDS011;1496;51.404;7.232;2024-03-17T10:57:47;4.93;;;3.67;;
2972;SDS011;1496;51.404;7.232;2024-03-17T11:00:24;5.50;;;3.80;;
2972;SDS011;1496;51.404;7.232;2024-03-17T11:02:54;5.47;;;3.30;;
2972;SDS011;1496;51.404;7.232;2024-03-17T11:05:22;3.50;;;3.10;;
2972;SDS011;1496;51.404;7.232;2024-03-17T11:08:02;3.70;;;3.20;;
2972;SDS011;1496;51.404;7.232;2024-03-17T11:10:58;4.73;;;3.70;;
2972;SDS011;1496;51.404;7.232;2024-03-17T11:15:59;4.97;;;3.10;;
2972;SDS011;1496;51.404;7.232;2024-03-17T11:18:31;6.30;;;4.10;;
2972;SDS011;1496;51.404;7.232;2024-03-17T11:23:48;6.73;;;3.97;;
2972;SDS011;1496;51.404;7.232;2024-03-17T11:26:47;7.20;;;3.40;;
2972;SDS011;1496;51.404;7.232;2024-03-17T11:29:28;4.23;;;3.67;;
2972;SDS011;1496;51.404;7.232;2024-03-17T11:31:55;8.53;;;4.40;;
2972;SDS011;1496;51.404;7.232;2024-03-17T11:34:31;5.53;;;4.33;;
2972;SDS011;1496;51.404;7.232;2024-03-17T11:36:59;6.10;;;3.90;;
2972;SDS011;1496;51.404;7.232;2024-03-17T11:42:21;7.07;;;4.53;;
2972;SDS011;1496;51.404;7.232;2024-03-17T11:47:41;5.50;;;4.00;;
2972;SDS011;1496;51.404;7.232;2024-03-17T11:50:08;6.63;;;4.10;;
2972;SDS011;1496;51.404;7.232;2024-03-17T11:52:37;7.90;;;4.53;;
2972;SDS011;1496;51.404;7.232;2024-03-17T11:55:14;9.63;;;4.13;;
2972;SDS011;1496;51.404;7.232;2024-03-17T11:57:43;5.70;;;4.10;;
2972;SDS011;1496;51.404;7.232;2024-03-17T12:00:19;7.20;;;4.33;;
2972;SDS011;1496;51.404;7.232;2024-03-17T12:02:47;7.30;;;3.40;;
2972;SDS011;1496;51.404;7.232;2024-03-17T12:05:14;7.83;;;3.67;;
2972;SDS011;1496;51.404;7.232;2024-03-17T12:07:43;8.03;;;4.33;;
2972;SDS011;1496;51.404;7.232;2024-03-17T12:10:10;5.43;;;3.63;;
2972;SDS011;1496;51.404;7.232;2024-03-17T12:12:38;5.93;;;3.07;;
2972;SDS011;1496;51.404;7.232;2024-03-17T12:15:13;5.87;;;4.40;;
2972;SDS011;1496;51.404;7.232;2024-03-17T12:17:51;4.50;;;3.97;;
2972;SDS011;1496;51.404;7.232;2024-03-17T12:20:21;6.03;;;4.57;;
2972;SDS011;1496;51.404;7.232;2024-03-17T12:22:47;6.57;;;4.20;;
2972;SDS011;1496;51.404;7.232;2024-03-17T12:25:16;5.50;;;3.87;;
2972;SDS011;1496;51.404;7.232;2024-03-17T12:27:43;5.57;;;3.73;;
2972;SDS011;1496;51.404;7.232;2024-03-17T12:30:13;7.57;;;4.47;;
2972;SDS011;1496;51.404;7.232;2024-03-17T12:32:40;6.73;;;3.90;;
2972;SDS011;1496;51.404;7.232;2024-03-17T12:35:16;3.77;;;3.37;;
2972;SDS011;1496;51.404;7.232;2024-03-17T12:37:43;4.60;;;3.70;;
2972;SDS011;1496;51.404;7.232;2024-03-17T12:43:05;4.67;;;3.50;;
2972;SDS011;1496;51.404;7.232;2024-03-17T12:45:33;8.63;;;4.80;;
2972;SDS011;1496;51.404;7.232;2024-03-17T12:47:59;6.77;;;3.90;;
2972;SDS011;1496;51.404;7.232;2024-03-17T12:50:24;6.47;;;3.20;;
2972;SDS011;1496;51.404;7.232;2024-03-17T12:52:52;5.90;;;3.20;;
2972;SDS011;1496;51.404;7.232;2024-03-17T12:55:21;8.80;;;4.23;;
2972;SDS011;1496;51.404;7.232;2024-03-17T12:58:06;8.33;;;3.30;;
2972;SDS011;1496;51.404;7.232;2024-03-17T13:01:04;7.10;;;2.90;;
2972;SDS011;1496;51.404;7.232;2024-03-17T13:03:34;7.47;;;3.03;;
2972;SDS011;1496;51.404;7.232;2024-03-17T13:06:01;7.30;;;3.17;;
2972;SDS011;1496;51.404;7.232;2024-03-17T13:08:29;3.13;;;2.83;;
2972;SDS011;1496;51.404;7.232;2024-03-17T13:10:57;6.87;;;2.90;;
2972;SDS011;1496;51.404;7.232;2024-03-17T13:13:25;3.70;;;2.87;;
2972;SDS011;1496;51.404;7.232;2024-03-17T13:15:51;3.10;;;2.67;;
2972;SDS011;1496;51.404;7.232;2024-03-17T13:18:17;3.87;;;2.33;;
2972;SDS011;1496;51.404;7.232;2024-03-17T13:20:47;7.93;;;3.03;;
2972;SDS011;1496;51.404;7.232;2024-03-17T13:23:19;5.70;;;3.13;;
2972;SDS011;1496;51.404;7.232;2024-03-17T13:25:47;3.87;;;2.50;;
2972;SDS011;1496;51.404;7.232;2024-03-17T13:28:13;4.80;;;2.90;;
2972;SDS011;1496;51.404;7.232;2024-03-17T13:30:40;4.23;;;3.23;;
2972;SDS011;1496;51.404;7.232;2024-03-17T13:33:09;3.67;;;2.90;;
2972;SDS011;1496;51.404;7.232;2024-03-17T13:35:49;7.70;;;3.10;;
2972;SDS011;1496;51.404;7.232;2024-03-17T13:38:16;4.40;;;2.73;;
2972;SDS011;1496;51.404;7.232;2024-03-17T13:40:47;5.00;;;3.10;;
2972;SDS011;1496;51.404;7.232;2024-03-17T13:43:13;2.63;;;2.40;;
2972;SDS011;1496;51.404;7.232;2024-03-17T13:45:40;3.70;;;2.43;;
2972;SDS011;1496;51.404;7.232;2024-03-17T13:48:06;3.87;;;2.40;;
2972;SDS011;1496;51.404;7.232;2024-03-17T13:50:35;3.33;;;2.30;;
2972;SDS011;1496;51.404;7.232;2024-03-17T13:53:01;4.13;;;2.67;;
2972;SDS011;1496;51.404;7.232;2024-03-17T13:55:28;4.07;;;2.80;;
2972;SDS011;1496;51.404;7.232;2024-03-17T13:57:57;5.60;;;2.57;;
2972;SDS011;1496;51.404;7.232;2024-03-17T14:00:27;6.73;;;3.40;;
2972;SDS011;1496;51.404;7.232;2024-03-17T14:02:54;4.40;;;2.33;;
2972;SDS011;1496;51.404;7.232;2024-03-17T14:05:27;3.17;;;2.60;;
2972;SDS011;1496;51.404;7.232;2024-03-17T14:07:53;3.77;;;2.17;;
2972;SDS011;1496;51.404;7.232;2024-03-17T14:10:20;3.60;;;2.33;;
2972;SDS011;1496;51.404;7.232;2024-03-17T14:12:47;4.17;;;2.53;;
2972;SDS011;1496;51.404;7.232;2024-03-17T14:15:13;4.83;;;2.40;;
2972;SDS011;1496;51.404;7.232;2024-03-17T14:17:40;3.10;;;2.10;;
2972;SDS011;1496;51.404;7.232;2024-03-17T14:20:13;3.27;;;1.90;;
2972;SDS011;1496;51.404;7.232;2024-03-17T14:22:43;3.83;;;1.87;;
2972;SDS011;1496;51.404;7.232;2024-03-17T14:25:10;3.50;;;2.30;;
2972;SDS011;1496;51.404;7.232;2024-03-17T14:27:43;5.60;;;2.00;;
2972;SDS011;1496;51.404;7.232;2024-03-17T14:30:15;3.00;;;2.20;;
2972;SDS011;1496;51.404;7.232;2024-03-17T14:32:42;6.17;;;1.83;;
2972;SDS011;1496;51.404;7.232;2024-03-17T14:35:15;4.73;;;2.73;;
2972;SDS011;1496;51.404;7.232;2024-03-17T14:37:42;2.10;;;1.90;;
2972;SDS011;1496;51.404;7.232;2024-03-17T14:40:12;2.20;;;2.00;;
2972;SDS011;1496;51.404;7.232;2024-03-17T14:42:46;4.77;;;2.50;;
2972;SDS011;1496;51.404;7.232;2024-03-17T14:45:19;4.13;;;2.60;;
2972;SDS011;1496;51.404;7.232;2024-03-17T14:47:45;3.17;;;2.30;;
2972;SDS011;1496;51.404;7.232;2024-03-17T14:50:11;4.30;;;2.30;;
2972;SDS011;1496;51.404;7.232;2024-03-17T14:52:37;3.20;;;2.47;;
2972;SDS011;1496;51.404;7.232;2024-03-17T14:55:11;6.50;;;2.93;;
2972;SDS011;1496;51.404;7.232;2024-03-17T14:57:37;4.00;;;2.83;;
2972;SDS011;1496;51.404;7.232;2024-03-17T15:00:05;4.07;;;2.10;;
2972;SDS011;1496;51.404;7.232;2024-03-17T15:02:51;5.13;;;2.20;;
2972;SDS011;1496;51.404;7.232;2024-03-17T15:05:19;4.80;;;2.17;;
2972;SDS011;1496;51.404;7.232;2024-03-17T15:07:46;4.90;;;2.37;;
2972;SDS011;1496;51.404;7.232;2024-03-17T15:10:13;4.97;;;2.30;;
2972;SDS011;1496;51.404;7.232;2024-03-17T15:12:40;4.07;;;2.90;;
2972;SDS011;1496;51.404;7.232;2024-03-17T15:15:07;3.90;;;2.40;;
2972;SDS011;1496;51.404;7.232;2024-03-17T15:17:34;2.93;;;2.47;;
2972;SDS011;1496;51.404;7.232;2024-03-17T15:20:00;5.50;;;2.67;;
2972;SDS011;1496;51.404;7.232;2024-03-17T15:22:26;3.00;;;1.90;;
2972;SDS011;1496;51.404;7.232;2024-03-17T15:24:52;4.20;;;1.90;;
2972;SDS011;1496;51.404;7.232;2024-03-17T15:27:18;2.37;;;1.50;;
2972;SDS011;1496;51.404;7.232;2024-03-17T15:29:44;4.10;;;1.90;;
2972;SDS011;1496;51.404;7.232;2024-03-17T15:32:10;3.87;;;2.17;;
2972;SDS011;1496;51.404;7.232;2024-03-17T15:34:36;3.90;;;2.00;;
2972;SDS011;1496;51.404;7.232;2024-03-17T15:37:03;2.63;;;2.20;;
2972;SDS011;1496;51.404;7.232;2024-03-17T15:39:30;2.40;;;1.97;;
2972;SDS011;1496;51.404;7.232;2024-03-17T15:41:55;5.83;;;2.20;;
2972;SDS011;1496;51.404;7.232;2024-03-17T15:44:21;2.57;;;1.93;;
2972;SDS011;1496;51.404;7.232;2024-03-17T15:46:47;2.93;;;1.90;;
2972;SDS011;1496;51.404;7.232;2024-03-17T15:49:15;4.00;;;3.00;;
2972;SDS011;1496;51.404;7.232;2024-03-17T15:51:41;6.20;;;3.03;;
2972;SDS011;1496;51.404;7.232;2024-03-17T15:54:07;4.80;;;3.07;;
2972;SDS011;1496;51.404;7.232;2024-03-17T15:56:33;4.97;;;2.83;;
2972;SDS011;1496;51.404;7.232;2024-03-17T15:58:59;6.47;;;3.03;;
2972;SDS011;1496;51.404;7.232;2024-03-17T16:01:25;4.80;;;2.67;;
2972;SDS011;1496;51.404;7.232;2024-03-17T16:03:51;4.03;;;2.90;;